Healing Springs, North Carolina
Current Conditions -  °F | °C
As of 6:35 AM on Saturday 20 Dec 2014 (Local Time) from KHBI Reporting Station
Broken Clouds Broken Clouds  
Wind Chill: 39°   Ceiling: 7000
Heat Index: 39°   Visibility: 10mi
Dew Point: 30°   Wind: 3mph
Humidity: 69%   Direction: 10°N
Pressure: 30.27"   Gusts: NA
Location:  35.6015°N, 80.0858°W
Report Text: KHBI 201135Z AUTO 01003KT 10SM SCT065 BKN070 04/M01 A3027 RMK AO2 T00401013
Loading
Personal Weather Stations






























Interactive Weather Map New forecast layout! Learn more

10-Day Weather Forecast

Advertisements
Track Severe Weather on mobile